Chris — V7XF8 — position and weather

sailwx.info

Track history (hours):
 
Tides and Currents Weather Stations Pressure Air Temp Water Temp Dewpoint Dewpoint Depression Visibility Wind Speed Wind Dir Waves Ship Positions

Chris

Last reported at 2018-Apr-20 12:26 UTC. Time now 2018-Apr-20 20:30 UTC.
Position N 00°07' W 047°33'.

Length 225 m; draft 13.2 m.

Type: Cargo ship. MMSI: 538004472.

Date/timePositionNaut miles runAvg speedWind from/ knotsBaromVisibWave heightAir tempDewpointWater temp
2018-Apr-20 12:26N 00°07' W 047°33'410.6
2018-Apr-20 12:01N 00°04' W 047°36'510.8
2018-Apr-20 11:30S 00°00' W 047°40'611.0
2018-Apr-20 11:00S 00°04' W 047°44'611.7
2018-Apr-20 10:30S 00°08' W 047°48'510.5
2018-Apr-20 10:00S 00°13' W 047°50'5 9.7
2018-Apr-20 09:31S 00°15' W 047°55'510.4
2018-Apr-20 09:01S 00°18' W 047°59'713.2
2018-Apr-20 08:30S 00°21' W 048°05'611.9
2018-Apr-20 08:00S 00°23' W 048°11'612.7
2018-Apr-20 07:30S 00°28' W 048°15'714.5
2018-Apr-20 06:59S 00°34' W 048°20'714.1
2018-Apr-20 06:30S 00°39' W 048°23'713.4
2018-Apr-20 06:00S 00°45' W 048°26'611.6
2018-Apr-20 05:30S 00°51' W 048°29'510.8
2018-Apr-20 05:00S 00°55' W 048°27'510.2
2018-Apr-20 04:30S 01°01' W 048°27'5 9.9
2018-Apr-20 04:00S 01°04' W 048°30'5 9.9
2018-Apr-20 03:30S 01°08' W 048°33'4 7.0
2018-Apr-20 03:00S 01°11' W 048°35'510.5
2018-Apr-20 02:30S 01°15' W 048°38'611.7
2018-Apr-20 01:59S 01°21' W 048°41'613.3
2018-Apr-20 01:30S 01°26' W 048°44'612.4
2018-Apr-20 01:00S 01°32' W 048°46'2 4.9
2018-Apr-20 00:30S 01°34' W 048°47'0 0.1
2018-Apr-20 00:00S 01°34' W 048°47'0 0.0
2018-Apr-19 23:24S 01°34' W 048°47'0 0.0
2018-Apr-19 23:00S 01°34' W 048°47'0 0.0
2018-Apr-19 22:30S 01°34' W 048°47'0 0.0
2018-Apr-19 21:54S 01°34' W 048°47'0 0.0
2018-Apr-19 21:30S 01°34' W 048°47'0 0.0
2018-Apr-19 20:54S 01°34' W 048°47'0 0.0
2018-Apr-19 20:24S 01°34' W 048°47'0 0.0
2018-Apr-19 20:00S 01°34' W 048°47'0 0.0
2018-Apr-19 19:25S 01°34' W 048°47'0 0.0
2018-Apr-19 19:00S 01°34' W 048°47'0 0.0
2018-Apr-19 18:30S 01°34' W 048°47'0 0.0
2018-Apr-19 18:00S 01°34' W 048°47'0 0.0
2018-Apr-19 17:18S 01°34' W 048°47'0 0.0
2018-Apr-19 17:00S 01°34' W 048°47'0 0.0
2018-Apr-19 16:24S 01°34' W 048°47'0 0.0
2018-Apr-19 16:00S 01°34' W 048°47'0 0.0
2018-Apr-19 15:30S 01°34' W 048°47'0 0.0
2018-Apr-19 15:00S 01°34' W 048°47'0 0.0
2018-Apr-19 14:30S 01°34' W 048°47'0 0.0
2018-Apr-19 14:00S 01°34' W 048°47'0 0.0
2018-Apr-19 13:30S 01°34' W 048°47'0 0.0
2018-Apr-19 12:48S 01°34' W 048°47'0 0.0
2018-Apr-19 12:30S 01°34' W 048°47'0 0.0
2018-Apr-19 11:48S 01°34' W 048°47'0 0.0
2018-Apr-19 11:24S 01°34' W 048°47'0 0.0
2018-Apr-19 11:00S 01°34' W 048°47'0 0.0
2018-Apr-19 10:24S 01°34' W 048°47'0 0.0
2018-Apr-19 10:00S 01°34' W 048°47'0 0.0
2018-Apr-19 09:24S 01°34' W 048°47'0 0.0
2018-Apr-19 09:00S 01°34' W 048°47'0 0.0
2018-Apr-19 08:30S 01°34' W 048°47'0 0.0
2018-Apr-19 07:59S 01°34' W 048°47'0 0.0
2018-Apr-19 07:24S 01°34' W 048°47'0 0.0
2018-Apr-19 07:00S 01°34' W 048°47'0 0.0
2018-Apr-19 06:24S 01°34' W 048°47'0 0.0
2018-Apr-19 05:48S 01°34' W 048°47'0 0.0
2018-Apr-19 05:30S 01°34' W 048°47'0 0.0
2018-Apr-19 05:00S 01°34' W 048°47'0 0.0
2018-Apr-19 04:30S 01°34' W 048°47'0 0.0
2018-Apr-19 03:54S 01°34' W 048°47'0 0.0
2018-Apr-19 03:30S 01°34' W 048°47'0 0.0
2018-Apr-19 03:00S 01°34' W 048°47'0 0.0
2018-Apr-19 02:29S 01°34' W 048°47'0 0.0
2018-Apr-19 02:00S 01°34' W 048°47'0 0.0
2018-Apr-19 01:30S 01°34' W 048°47'0 0.0
2018-Apr-19 01:00S 01°34' W 048°47'0 0.0
2018-Apr-19 00:30S 01°34' W 048°47'0 0.0
2018-Apr-19 00:00S 01°34' W 048°47'0 0.0
2018-Apr-18 23:30S 01°34' W 048°47'0 0.0
2018-Apr-18 23:00S 01°34' W 048°47'0 0.0
2018-Apr-18 22:30S 01°34' W 048°47'0 0.0
2018-Apr-18 22:00S 01°34' W 048°47'0 0.0
2018-Apr-18 21:06S 01°34' W 048°47'0 0.0
2018-Apr-18 21:00S 01°34' W 048°47'0 0.0
2018-Apr-18 20:30S 01°34' W 048°47'0 0.0
2018-Apr-18 20:00S 01°34' W 048°47'0 0.0
2018-Apr-18 19:18S 01°34' W 048°47'0 0.0
2018-Apr-18 19:00S 01°34' W 048°47'0 0.0
2018-Apr-18 18:30S 01°34' W 048°47'0 0.0
2018-Apr-18 17:55S 01°34' W 048°47'0 0.0
2018-Apr-18 17:30S 01°34' W 048°47'0 0.0
2018-Apr-18 16:57S 01°34' W 048°47'0 0.0
2018-Apr-18 16:27S 01°34' W 048°47'0 0.0
2018-Apr-18 15:57S 01°34' W 048°47'0 0.0
2018-Apr-18 15:27S 01°34' W 048°47'0 0.0
2018-Apr-18 14:57S 01°34' W 048°47'0 0.0
2018-Apr-18 14:22S 01°34' W 048°47'0 0.0
2018-Apr-18 11:09S 01°34' W 048°47'0 0.0
2018-Apr-18 10:58S 01°34' W 048°47'0 0.0
2018-Apr-18 10:27S 01°34' W 048°47'0 0.0
2018-Apr-18 09:57S 01°34' W 048°47'0 0.0
2018-Apr-18 09:30S 01°34' W 048°47'0 0.0
2018-Apr-18 08:59S 01°34' W 048°47'0 0.0
2018-Apr-18 08:24S 01°34' W 048°47'0 0.0
2018-Apr-18 07:59S 01°34' W 048°47'0 0.0
2018-Apr-18 07:22S 01°34' W 048°47'0 0.0
2018-Apr-18 06:57S 01°34' W 048°47'0 0.0
2018-Apr-18 06:25S 01°34' W 048°47'0 0.0
2018-Apr-18 05:58S 01°34' W 048°47'0 0.0
2018-Apr-18 05:27S 01°34' W 048°47'0 0.0
2018-Apr-18 04:58S 01°34' W 048°47'0 0.0
2018-Apr-18 04:27S 01°34' W 048°47'0 0.0
2018-Apr-18 03:57S 01°34' W 048°47'0 0.0
2018-Apr-18 03:21S 01°34' W 048°47'0 0.0
2018-Apr-18 02:57S 01°34' W 048°47'0 0.0
2018-Apr-18 02:26S 01°34' W 048°47'0 0.0
2018-Apr-18 01:47S 01°34' W 048°47'0 0.0
2018-Apr-18 01:02S 01°34' W 048°47'0 0.0
2018-Apr-18 01:00S 01°34' W 048°47'0 0.0
2018-Apr-18 00:30S 01°34' W 048°47'0 0.0
2018-Apr-17 23:59S 01°34' W 048°47'0 0.0
2018-Apr-17 23:21S 01°34' W 048°47'0 0.0
2018-Apr-17 22:58S 01°34' W 048°47'0 0.0
2018-Apr-17 22:27S 01°34' W 048°47'0 0.0
2018-Apr-17 21:57S 01°34' W 048°47'0 0.0
2018-Apr-17 21:27S 01°34' W 048°47'0 0.0
2018-Apr-17 20:58S 01°34' W 048°47'0 0.0
2018-Apr-17 20:27S 01°34' W 048°47'0 0.0
2018-Apr-17 19:57S 01°34' W 048°47'0 0.0
2018-Apr-17 19:27S 01°34' W 048°47'0 0.0
2018-Apr-17 18:57S 01°34' W 048°47'0 0.0
2018-Apr-17 18:27S 01°34' W 048°47'0 0.0
2018-Apr-17 17:58S 01°34' W 048°47'0 0.0
2018-Apr-17 17:21S 01°34' W 048°47'0 0.0
2018-Apr-17 16:57S 01°34' W 048°47'0 0.0
2018-Apr-17 16:27S 01°34' W 048°47'0 0.0
2018-Apr-17 15:57S 01°34' W 048°47'0 0.0
2018-Apr-17 15:27S 01°34' W 048°47'0 0.0
2018-Apr-17 14:58S 01°34' W 048°47'0 0.0
2018-Apr-17 14:27S 01°34' W 048°47'0 0.0
2018-Apr-17 13:57S 01°34' W 048°47'0 0.0
2018-Apr-17 13:27S 01°34' W 048°47'0 0.0
2018-Apr-17 12:57S 01°34' W 048°47'0 0.0
2018-Apr-17 12:21S 01°34' W 048°47'0 0.0
2018-Apr-17 11:57S 01°34' W 048°47'0 0.0
2018-Apr-17 11:21S 01°34' W 048°47'0 0.0
2018-Apr-17 10:46S 01°34' W 048°47'0 0.0
2018-Apr-17 10:28S 01°34' W 048°47'0 0.0
2018-Apr-17 09:57S 01°34' W 048°47'0 0.0
2018-Apr-17 09:27S 01°34' W 048°47'0 0.0
2018-Apr-17 08:57S 01°34' W 048°47'0 0.0
2018-Apr-17 08:28S 01°34' W 048°47'0 0.0
2018-Apr-17 08:00S 01°34' W 048°47'0 0.0
2018-Apr-17 07:23S 01°34' W 048°47'0 0.0
2018-Apr-17 06:59S 01°34' W 048°47'0 0.0
2018-Apr-17 06:29S 01°34' W 048°47'0 0.0
2018-Apr-17 05:57S 01°34' W 048°47'0 0.0
2018-Apr-17 05:27S 01°34' W 048°47'0 0.0
2018-Apr-17 04:57S 01°34' W 048°47'0 0.0
2018-Apr-17 04:27S 01°34' W 048°47'0 0.0
2018-Apr-17 03:57S 01°34' W 048°47'0 0.0
2018-Apr-17 03:27S 01°34' W 048°47'0 0.0
2018-Apr-17 02:52S 01°34' W 048°47'0 0.0
2018-Apr-17 02:27S 01°34' W 048°47'0 0.0
2018-Apr-17 01:58S 01°34' W 048°47'0 0.0
2018-Apr-17 01:27S 01°34' W 048°47'0 0.0
2018-Apr-17 00:57S 01°34' W 048°47'0 0.0
2018-Apr-17 00:21S 01°34' W 048°47'0 0.0
2018-Apr-16 23:58S 01°34' W 048°47'0 0.0
2018-Apr-16 23:27S 01°34' W 048°47'0 0.0
2018-Apr-16 22:57S 01°34' W 048°47'0 0.0
2018-Apr-16 22:27S 01°34' W 048°47'0 0.0
2018-Apr-16 21:57S 01°34' W 048°47'0 0.0
2018-Apr-16 21:28S 01°34' W 048°47'0 0.0
2018-Apr-16 20:58S 01°34' W 048°47'0 0.0
2018-Apr-16 20:27S 01°34' W 048°47'0 0.0
2018-Apr-16 01:15S 01°34' W 048°47'0 0.0
2018-Apr-16 00:58S 01°34' W 048°47'0 0.0
2018-Apr-16 00:30S 01°34' W 048°47'1 1.0
2018-Apr-15 23:58S 01°34' W 048°47'3 7.7
2018-Apr-15 23:31S 01°31' W 048°46'712.9
2018-Apr-15 23:00S 01°25' W 048°43'613.0
2018-Apr-15 22:30S 01°19' W 048°40'612.4
2018-Apr-15 22:01S 01°15' W 048°36'611.6
2018-Apr-15 21:31S 01°10' W 048°33'3 6.8
2018-Apr-15 21:00S 01°07' W 048°30'2 4.3
2018-Apr-15 20:30S 01°06' W 048°29'0 0.1
2018-Apr-15 20:00S 01°06' W 048°29'0 0.0
2018-Apr-15 19:30S 01°06' W 048°29'0 0.1
2018-Apr-15 19:00S 01°06' W 048°29'0 0.0
2018-Apr-15 18:27S 01°06' W 048°29'0 0.1
2018-Apr-15 18:00S 01°06' W 048°29'0 0.0
2018-Apr-15 17:30S 01°06' W 048°29'0 0.0
2018-Apr-15 17:00S 01°06' W 048°29'0 0.1
2018-Apr-15 16:30S 01°06' W 048°29'0 0.2
2018-Apr-15 16:00S 01°06' W 048°29'0 0.2
2018-Apr-15 15:03S 01°06' W 048°29'0 0.0
2018-Apr-15 15:00S 01°06' W 048°29'0 0.0
2018-Apr-15 14:30S 01°06' W 048°29'0 0.0
2018-Apr-15 13:48S 01°06' W 048°29'0 0.0
2018-Apr-15 13:28S 01°06' W 048°29'0 0.0
2018-Apr-15 12:59S 01°06' W 048°29'0 0.0
2018-Apr-15 12:30S 01°06' W 048°29'0 0.0
2018-Apr-15 12:00S 01°06' W 048°29'0 0.0
2018-Apr-15 11:30S 01°06' W 048°29'0 0.1
2018-Apr-15 10:48S 01°06' W 048°29'0 0.5
2018-Apr-15 10:30S 01°06' W 048°29'0 0.3
2018-Apr-15 10:00S 01°06' W 048°29'0 0.1
2018-Apr-15 09:27S 01°06' W 048°29'0 0.0
2018-Apr-15 09:00S 01°06' W 048°29'0 0.0
2018-Apr-15 08:30S 01°06' W 048°29'0 0.0
2018-Apr-15 08:00S 01°06' W 048°29'0 0.0
2018-Apr-15 07:30S 01°06' W 048°29'0 0.1
2018-Apr-15 07:00S 01°06' W 048°29'0 0.0
2018-Apr-15 06:30S 01°06' W 048°29'0 0.0
2018-Apr-15 06:00S 01°06' W 048°29'0 0.0
2018-Apr-15 05:30S 01°06' W 048°29'0 0.0
2018-Apr-15 05:00S 01°06' W 048°29'0 0.0
2018-Apr-15 04:30S 01°06' W 048°29'0 0.3
2018-Apr-15 04:00S 01°06' W 048°29'0 0.2
2018-Apr-15 03:30S 01°06' W 048°29'0 0.1
2018-Apr-15 03:00S 01°06' W 048°29'0 0.0
2018-Apr-15 02:24S 01°06' W 048°29'0 0.0
2018-Apr-15 02:00S 01°06' W 048°29'0 0.0
2018-Apr-15 01:30S 01°06' W 048°29'0 0.0
2018-Apr-15 01:00S 01°06' W 048°29'0 0.0
2018-Apr-15 00:30S 01°06' W 048°29'0 0.0
2018-Apr-15 00:00S 01°06' W 048°29'0 0.0
2018-Apr-14 23:30S 01°06' W 048°29'0 0.0
2018-Apr-14 23:00S 01°06' W 048°29'0 0.0
2018-Apr-14 22:30S 01°06' W 048°29'0 0.2
2018-Apr-14 21:57S 01°06' W 048°29'0 0.5
2018-Apr-14 21:30S 01°06' W 048°29'0 0.1
2018-Apr-14 21:00S 01°06' W 048°29'0 0.0
2018-Apr-14 20:30S 01°06' W 048°29'0 0.0
2018-Apr-14 20:00S 01°06' W 048°29'0 0.0
2018-Apr-14 19:30S 01°06' W 048°29'0 0.0
2018-Apr-14 19:00S 01°06' W 048°29'0 0.0
2018-Apr-14 18:30S 01°06' W 048°29'0 0.0
2018-Apr-14 18:00S 01°06' W 048°29'0 0.0
2018-Apr-14 17:30S 01°06' W 048°29'0 0.0
2018-Apr-14 17:00S 01°06' W 048°29'0 0.0
2018-Apr-14 01:06S 01°06' W 048°29'0 0.0
2018-Apr-14 01:00S 01°06' W 048°29'0 0.0
2018-Apr-14 00:30S 01°06' W 048°29'0 0.0
2018-Apr-14 00:00S 01°06' W 048°29'0 0.0
2018-Apr-13 23:30S 01°06' W 048°29'0 0.0
2018-Apr-13 23:00S 01°06' W 048°29'0 0.0
2018-Apr-13 22:30S 01°06' W 048°29'0 0.0
2018-Apr-13 22:00S 01°06' W 048°29'0 0.1
2018-Apr-13 21:30S 01°06' W 048°29'0 0.4
2018-Apr-13 21:00S 01°06' W 048°29'0 0.1
2018-Apr-13 20:30S 01°06' W 048°29'0 0.0
2018-Apr-13 20:00S 01°06' W 048°29'0 0.0
2018-Apr-13 19:30S 01°06' W 048°29'0 0.0
2018-Apr-13 19:00S 01°06' W 048°29'0 0.0
2018-Apr-13 18:30S 01°06' W 048°29'0 0.0
2018-Apr-13 18:00S 01°06' W 048°29'0 0.0
2018-Apr-13 17:30S 01°06' W 048°29'0 0.0
2018-Apr-13 17:00S 01°06' W 048°29'0 0.0
2018-Apr-13 16:30S 01°06' W 048°29'0 0.0
2018-Apr-13 16:00S 01°06' W 048°29'0 0.0
2018-Apr-13 15:30S 01°06' W 048°29'0 0.4
2018-Apr-13 15:00S 01°06' W 048°29'0 0.2
2018-Apr-13 14:30S 01°06' W 048°29'0 0.0
2018-Apr-13 14:00S 01°06' W 048°29'0 0.0
2018-Apr-13 13:30S 01°06' W 048°29'0 0.0
2018-Apr-13 13:00S 01°06' W 048°29'0 0.0
2018-Apr-13 12:30S 01°06' W 048°29'0 0.0
2018-Apr-13 12:00S 01°06' W 048°29'0 0.0
2018-Apr-13 11:30S 01°06' W 048°29'0 0.0
2018-Apr-13 11:00S 01°06' W 048°29'0 0.0
2018-Apr-13 10:30S 01°06' W 048°29'0 0.0
2018-Apr-13 10:00S 01°06' W 048°29'0 0.2
2018-Apr-13 09:30S 01°06' W 048°29'0 0.4
2018-Apr-13 09:00S 01°06' W 048°29'0 0.1
2018-Apr-13 08:30S 01°06' W 048°29'0 0.0
2018-Apr-13 08:00S 01°06' W 048°29'0 0.0
2018-Apr-13 07:30S 01°06' W 048°29'0 0.0
2018-Apr-13 07:00S 01°06' W 048°29'0 0.0
2018-Apr-13 06:30S 01°06' W 048°29'0 0.0
2018-Apr-13 06:00S 01°06' W 048°29'0 0.0
2018-Apr-13 05:30S 01°06' W 048°29'0 0.0
2018-Apr-13 05:00S 01°06' W 048°29'0 0.0
2018-Apr-13 04:30S 01°06' W 048°29'0 0.0
2018-Apr-13 04:00S 01°06' W 048°29'0 0.0
2018-Apr-13 03:30S 01°06' W 048°29'0 0.0
2018-Apr-13 03:00S 01°06' W 048°29'0 0.1
2018-Apr-13 02:30S 01°06' W 048°29'0 0.3
2018-Apr-13 02:00S 01°06' W 048°29'0 0.1
2018-Apr-13 01:30S 01°06' W 048°29'0 0.0
2018-Apr-13 01:00S 01°06' W 048°29'0 0.0
2018-Apr-13 00:30S 01°06' W 048°29'0 0.0
2018-Apr-13 00:00S 01°06' W 048°29'0 0.0
2018-Apr-12 23:30S 01°06' W 048°29'0 0.0
2018-Apr-12 23:00S 01°06' W 048°29'0 0.0
2018-Apr-12 22:30S 01°06' W 048°29'0 0.0
2018-Apr-12 22:00S 01°06' W 048°29'0 0.0
2018-Apr-12 21:30S 01°06' W 048°29'0 0.1
2018-Apr-12 21:00S 01°06' W 048°29'0 0.3
2018-Apr-12 20:30S 01°06' W 048°29'0 0.3
2018-Apr-12 20:00S 01°06' W 048°29'0 0.0
2018-Apr-12 19:30S 01°06' W 048°29'0 0.0
2018-Apr-12 19:00S 01°06' W 048°29'0 0.0
2018-Apr-12 18:30S 01°06' W 048°29'0 0.0
2018-Apr-12 18:00S 01°06' W 048°29'0 0.0
2018-Apr-12 17:30S 01°06' W 048°29'0 0.1
2018-Apr-12 17:00S 01°06' W 048°29'0 0.1
2018-Apr-12 16:30S 01°06' W 048°29'0 0.0
2018-Apr-12 16:00S 01°06' W 048°29'0 0.0
2018-Apr-12 15:30S 01°06' W 048°29'0 0.0
2018-Apr-12 15:00S 01°06' W 048°29'0 0.2
2018-Apr-12 14:30S 01°06' W 048°29'0 0.2
2018-Apr-12 14:00S 01°06' W 048°29'0 0.1
2018-Apr-12 13:30S 01°06' W 048°29'0 0.1
2018-Apr-12 12:57S 01°06' W 048°29'0 0.0
2018-Apr-12 12:30S 01°06' W 048°29'0 0.0
2018-Apr-12 12:00S 01°06' W 048°29'0 0.0
2018-Apr-12 11:30S 01°06' W 048°29'0 0.0
2018-Apr-12 11:00S 01°06' W 048°29'0 0.0
2018-Apr-12 10:30S 01°06' W 048°29'0 0.0
2018-Apr-12 10:00S 01°06' W 048°29'0 0.0
2018-Apr-12 09:30S 01°06' W 048°29'0 0.0
2018-Apr-12 08:49S 01°06' W 048°29'0 0.3
2018-Apr-12 08:28S 01°06' W 048°29'0 0.4
2018-Apr-12 08:00S 01°06' W 048°29'0 0.1
2018-Apr-12 07:28S 01°06' W 048°29'0 0.0
2018-Apr-12 06:40S 01°06' W 048°29'0 0.0
2018-Apr-12 06:27S 01°06' W 048°29'0 0.0
2018-Apr-12 06:00S 01°06' W 048°29'0 0.0
2018-Apr-12 05:30S 01°06' W 048°29'0 0.0
2018-Apr-12 05:00S 01°06' W 048°29'0 0.0
2018-Apr-12 04:30S 01°06' W 048°29'0 0.0
2018-Apr-12 04:00S 01°06' W 048°29'0 0.1
2018-Apr-12 03:30S 01°06' W 048°29'0 0.0
2018-Apr-12 03:00S 01°06' W 048°29'0 0.2
2018-Apr-12 02:30S 01°06' W 048°29'0 0.2
2018-Apr-12 02:00S 01°06' W 048°29'0 0.2
2018-Apr-12 01:30S 01°06' W 048°29'0 0.1
2018-Apr-12 01:00S 01°06' W 048°29'0 0.0
2018-Apr-12 00:30S 01°06' W 048°29'0 0.1
2018-Apr-12 00:00S 01°06' W 048°29'0 0.0
2018-Apr-11 23:24S 01°06' W 048°29'0 0.1
2018-Apr-11 23:00S 01°06' W 048°29'0 0.0
2018-Apr-11 22:30S 01°06' W 048°29'0 0.0
2018-Apr-11 22:00S 01°06' W 048°29'0 0.0
2018-Apr-11 21:30S 01°06' W 048°29'0 0.0
2018-Apr-11 21:00S 01°06' W 048°29'0 0.0
2018-Apr-11 20:30S 01°06' W 048°29'0 0.1
2018-Apr-11 20:00S 01°06' W 048°29'0 0.4
2018-Apr-11 19:24S 01°06' W 048°29'0 0.2
2018-Apr-11 19:00S 01°06' W 048°29'0 0.0
2018-Apr-11 18:27S 01°06' W 048°29'0 0.0
2018-Apr-11 18:00S 01°06' W 048°29'0 0.0
2018-Apr-11 17:30S 01°06' W 048°29'0 0.0
2018-Apr-11 16:57S 01°06' W 048°29'0 0.0
2018-Apr-11 16:30S 01°06' W 048°29'0 0.0
2018-Apr-11 15:59S 01°06' W 048°29'0 0.1
2018-Apr-11 15:31S 01°06' W 048°29'1 1.0
2018-Apr-11 14:59S 01°06' W 048°29'3 6.1
2018-Apr-11 14:30S 01°03' W 048°28'510.8
2018-Apr-11 14:00S 00°58' W 048°27'5 9.3
2018-Apr-11 13:30S 00°54' W 048°29'510.7
2018-Apr-11 13:00S 00°49' W 048°28'510.9
2018-Apr-11 12:30S 00°44' W 048°26'611.3
2018-Apr-11 12:00S 00°39' W 048°23'611.6
2018-Apr-11 11:30S 00°34' W 048°20'612.2
2018-Apr-11 11:00S 00°29' W 048°16'612.0
2018-Apr-11 10:29S 00°25' W 048°12'612.2
2018-Apr-11 10:00S 00°22' W 048°06'612.3
2018-Apr-11 09:30S 00°19' W 048°01'712.3
2018-Apr-11 08:58S 00°16' W 047°55'1115.7
2018-Apr-11 08:17S 00°15' W 047°45'4 7.7
2018-Apr-11 07:49S 00°15' W 047°41'1911.8
2018-Apr-11 06:10S 00°18' W 047°22'  
Track history (hours):
 
Tides and Currents Weather Stations Pressure Air Temp Water Temp Dewpoint Dewpoint Depression Visibility Wind Speed Wind Dir Waves Ship Positions

Chris

Last reported at 2018-Apr-20 12:26 UTC. Time now 2018-Apr-20 20:30 UTC.
Position N 00°07' W 047°33'.

Length 225 m; draft 13.2 m.

Type: Cargo ship. MMSI: 538004472.

Date/timePositionNaut miles runAvg speedWind from/ knotsBaromVisibWave heightAir tempDewpointWater temp
2018-Apr-20 12:26N 00°07' W 047°33'410.6
2018-Apr-20 12:01N 00°04' W 047°36'510.8
2018-Apr-20 11:30S 00°00' W 047°40'611.0
2018-Apr-20 11:00S 00°04' W 047°44'611.7
2018-Apr-20 10:30S 00°08' W 047°48'510.5
2018-Apr-20 10:00S 00°13' W 047°50'5 9.7
2018-Apr-20 09:31S 00°15' W 047°55'510.4
2018-Apr-20 09:01S 00°18' W 047°59'713.2
2018-Apr-20 08:30S 00°21' W 048°05'611.9
2018-Apr-20 08:00S 00°23' W 048°11'612.7
2018-Apr-20 07:30S 00°28' W 048°15'714.5
2018-Apr-20 06:59S 00°34' W 048°20'714.1
2018-Apr-20 06:30S 00°39' W 048°23'713.4
2018-Apr-20 06:00S 00°45' W 048°26'611.6
2018-Apr-20 05:30S 00°51' W 048°29'510.8
2018-Apr-20 05:00S 00°55' W 048°27'510.2
2018-Apr-20 04:30S 01°01' W 048°27'5 9.9
2018-Apr-20 04:00S 01°04' W 048°30'5 9.9
2018-Apr-20 03:30S 01°08' W 048°33'4 7.0
2018-Apr-20 03:00S 01°11' W 048°35'510.5
2018-Apr-20 02:30S 01°15' W 048°38'611.7
2018-Apr-20 01:59S 01°21' W 048°41'613.3
2018-Apr-20 01:30S 01°26' W 048°44'612.4
2018-Apr-20 01:00S 01°32' W 048°46'2 4.9
2018-Apr-20 00:30S 01°34' W 048°47'0 0.1
2018-Apr-20 00:00S 01°34' W 048°47'0 0.0
2018-Apr-19 23:24S 01°34' W 048°47'0 0.0
2018-Apr-19 23:00S 01°34' W 048°47'0 0.0
2018-Apr-19 22:30S 01°34' W 048°47'0 0.0
2018-Apr-19 21:54S 01°34' W 048°47'0 0.0
2018-Apr-19 21:30S 01°34' W 048°47'0 0.0
2018-Apr-19 20:54S 01°34' W 048°47'0 0.0
2018-Apr-19 20:24S 01°34' W 048°47'0 0.0
2018-Apr-19 20:00S 01°34' W 048°47'0 0.0
2018-Apr-19 19:25S 01°34' W 048°47'0 0.0
2018-Apr-19 19:00S 01°34' W 048°47'0 0.0
2018-Apr-19 18:30S 01°34' W 048°47'0 0.0
2018-Apr-19 18:00S 01°34' W 048°47'0 0.0
2018-Apr-19 17:18S 01°34' W 048°47'0 0.0
2018-Apr-19 17:00S 01°34' W 048°47'0 0.0
2018-Apr-19 16:24S 01°34' W 048°47'0 0.0
2018-Apr-19 16:00S 01°34' W 048°47'0 0.0
2018-Apr-19 15:30S 01°34' W 048°47'0 0.0
2018-Apr-19 15:00S 01°34' W 048°47'0 0.0
2018-Apr-19 14:30S 01°34' W 048°47'0 0.0
2018-Apr-19 14:00S 01°34' W 048°47'0 0.0
2018-Apr-19 13:30S 01°34' W 048°47'0 0.0
2018-Apr-19 12:48S 01°34' W 048°47'0 0.0
2018-Apr-19 12:30S 01°34' W 048°47'0 0.0
2018-Apr-19 11:48S 01°34' W 048°47'0 0.0
2018-Apr-19 11:24S 01°34' W 048°47'0 0.0
2018-Apr-19 11:00S 01°34' W 048°47'0 0.0
2018-Apr-19 10:24S 01°34' W 048°47'0 0.0
2018-Apr-19 10:00S 01°34' W 048°47'0 0.0
2018-Apr-19 09:24S 01°34' W 048°47'0 0.0
2018-Apr-19 09:00S 01°34' W 048°47'0 0.0
2018-Apr-19 08:30S 01°34' W 048°47'0 0.0
2018-Apr-19 07:59S 01°34' W 048°47'0 0.0
2018-Apr-19 07:24S 01°34' W 048°47'0 0.0
2018-Apr-19 07:00S 01°34' W 048°47'0 0.0
2018-Apr-19 06:24S 01°34' W 048°47'0 0.0
2018-Apr-19 05:48S 01°34' W 048°47'0 0.0
2018-Apr-19 05:30S 01°34' W 048°47'0 0.0
2018-Apr-19 05:00S 01°34' W 048°47'0 0.0
2018-Apr-19 04:30S 01°34' W 048°47'0 0.0
2018-Apr-19 03:54S 01°34' W 048°47'0 0.0
2018-Apr-19 03:30S 01°34' W 048°47'0 0.0
2018-Apr-19 03:00S 01°34' W 048°47'0 0.0
2018-Apr-19 02:29S 01°34' W 048°47'0 0.0
2018-Apr-19 02:00S 01°34' W 048°47'0 0.0
2018-Apr-19 01:30S 01°34' W 048°47'0 0.0
2018-Apr-19 01:00S 01°34' W 048°47'0 0.0
2018-Apr-19 00:30S 01°34' W 048°47'0 0.0
2018-Apr-19 00:00S 01°34' W 048°47'0 0.0
2018-Apr-18 23:30S 01°34' W 048°47'0 0.0
2018-Apr-18 23:00S 01°34' W 048°47'0 0.0
2018-Apr-18 22:30S 01°34' W 048°47'0 0.0
2018-Apr-18 22:00S 01°34' W 048°47'0 0.0
2018-Apr-18 21:06S 01°34' W 048°47'0 0.0
2018-Apr-18 21:00S 01°34' W 048°47'0 0.0
2018-Apr-18 20:30S 01°34' W 048°47'0 0.0
2018-Apr-18 20:00S 01°34' W 048°47'0 0.0
2018-Apr-18 19:18S 01°34' W 048°47'0 0.0
2018-Apr-18 19:00S 01°34' W 048°47'0 0.0
2018-Apr-18 18:30S 01°34' W 048°47'0 0.0
2018-Apr-18 17:55S 01°34' W 048°47'0 0.0
2018-Apr-18 17:30S 01°34' W 048°47'0 0.0
2018-Apr-18 16:57S 01°34' W 048°47'0 0.0
2018-Apr-18 16:27S 01°34' W 048°47'0 0.0
2018-Apr-18 15:57S 01°34' W 048°47'0 0.0
2018-Apr-18 15:27S 01°34' W 048°47'0 0.0
2018-Apr-18 14:57S 01°34' W 048°47'0 0.0
2018-Apr-18 14:22S 01°34' W 048°47'0 0.0
2018-Apr-18 11:09S 01°34' W 048°47'0 0.0
2018-Apr-18 10:58S 01°34' W 048°47'0 0.0
2018-Apr-18 10:27S 01°34' W 048°47'0 0.0
2018-Apr-18 09:57S 01°34' W 048°47'0 0.0
2018-Apr-18 09:30S 01°34' W 048°47'0 0.0
2018-Apr-18 08:59S 01°34' W 048°47'0 0.0
2018-Apr-18 08:24S 01°34' W 048°47'0 0.0
2018-Apr-18 07:59S 01°34' W 048°47'0 0.0
2018-Apr-18 07:22S 01°34' W 048°47'0 0.0
2018-Apr-18 06:57S 01°34' W 048°47'0 0.0
2018-Apr-18 06:25S 01°34' W 048°47'0 0.0
2018-Apr-18 05:58S 01°34' W 048°47'0 0.0
2018-Apr-18 05:27S 01°34' W 048°47'0 0.0
2018-Apr-18 04:58S 01°34' W 048°47'0 0.0
2018-Apr-18 04:27S 01°34' W 048°47'0 0.0
2018-Apr-18 03:57S 01°34' W 048°47'0 0.0
2018-Apr-18 03:21S 01°34' W 048°47'0 0.0
2018-Apr-18 02:57S 01°34' W 048°47'0 0.0
2018-Apr-18 02:26S 01°34' W 048°47'0 0.0
2018-Apr-18 01:47S 01°34' W 048°47'0 0.0
2018-Apr-18 01:02S 01°34' W 048°47'0 0.0
2018-Apr-18 01:00S 01°34' W 048°47'0 0.0
2018-Apr-18 00:30S 01°34' W 048°47'0 0.0
2018-Apr-17 23:59S 01°34' W 048°47'0 0.0
2018-Apr-17 23:21S 01°34' W 048°47'0 0.0
2018-Apr-17 22:58S 01°34' W 048°47'0 0.0
2018-Apr-17 22:27S 01°34' W 048°47'0 0.0
2018-Apr-17 21:57S 01°34' W 048°47'0 0.0
2018-Apr-17 21:27S 01°34' W 048°47'0 0.0
2018-Apr-17 20:58S 01°34' W 048°47'0 0.0
2018-Apr-17 20:27S 01°34' W 048°47'0 0.0
2018-Apr-17 19:57S 01°34' W 048°47'0 0.0
2018-Apr-17 19:27S 01°34' W 048°47'0 0.0
2018-Apr-17 18:57S 01°34' W 048°47'0 0.0
2018-Apr-17 18:27S 01°34' W 048°47'0 0.0
2018-Apr-17 17:58S 01°34' W 048°47'0 0.0
2018-Apr-17 17:21S 01°34' W 048°47'0 0.0
2018-Apr-17 16:57S 01°34' W 048°47'0 0.0
2018-Apr-17 16:27S 01°34' W 048°47'0 0.0
2018-Apr-17 15:57S 01°34' W 048°47'0 0.0
2018-Apr-17 15:27S 01°34' W 048°47'0 0.0
2018-Apr-17 14:58S 01°34' W 048°47'0 0.0
2018-Apr-17 14:27S 01°34' W 048°47'0 0.0
2018-Apr-17 13:57S 01°34' W 048°47'0 0.0
2018-Apr-17 13:27S 01°34' W 048°47'0 0.0
2018-Apr-17 12:57S 01°34' W 048°47'0 0.0
2018-Apr-17 12:21S 01°34' W 048°47'0 0.0
2018-Apr-17 11:57S 01°34' W 048°47'0 0.0
2018-Apr-17 11:21S 01°34' W 048°47'0 0.0
2018-Apr-17 10:46S 01°34' W 048°47'0 0.0
2018-Apr-17 10:28S 01°34' W 048°47'0 0.0
2018-Apr-17 09:57S 01°34' W 048°47'0 0.0
2018-Apr-17 09:27S 01°34' W 048°47'0 0.0
2018-Apr-17 08:57S 01°34' W 048°47'0 0.0
2018-Apr-17 08:28S 01°34' W 048°47'0 0.0
2018-Apr-17 08:00S 01°34' W 048°47'0 0.0
2018-Apr-17 07:23S 01°34' W 048°47'0 0.0
2018-Apr-17 06:59S 01°34' W 048°47'0 0.0
2018-Apr-17 06:29S 01°34' W 048°47'0 0.0
2018-Apr-17 05:57S 01°34' W 048°47'0 0.0
2018-Apr-17 05:27S 01°34' W 048°47'0 0.0
2018-Apr-17 04:57S 01°34' W 048°47'0 0.0
2018-Apr-17 04:27S 01°34' W 048°47'0 0.0
2018-Apr-17 03:57S 01°34' W 048°47'0 0.0
2018-Apr-17 03:27S 01°34' W 048°47'0 0.0
2018-Apr-17 02:52S 01°34' W 048°47'0 0.0
2018-Apr-17 02:27S 01°34' W 048°47'0 0.0
2018-Apr-17 01:58S 01°34' W 048°47'0 0.0
2018-Apr-17 01:27S 01°34' W 048°47'0 0.0
2018-Apr-17 00:57S 01°34' W 048°47'0 0.0
2018-Apr-17 00:21S 01°34' W 048°47'0 0.0
2018-Apr-16 23:58S 01°34' W 048°47'0 0.0
2018-Apr-16 23:27S 01°34' W 048°47'0 0.0
2018-Apr-16 22:57S 01°34' W 048°47'0 0.0
2018-Apr-16 22:27S 01°34' W 048°47'0 0.0
2018-Apr-16 21:57S 01°34' W 048°47'0 0.0
2018-Apr-16 21:28S 01°34' W 048°47'0 0.0
2018-Apr-16 20:58S 01°34' W 048°47'0 0.0
2018-Apr-16 20:27S 01°34' W 048°47'0 0.0
2018-Apr-16 01:15S 01°34' W 048°47'0 0.0
2018-Apr-16 00:58S 01°34' W 048°47'0 0.0
2018-Apr-16 00:30S 01°34' W 048°47'1 1.0
2018-Apr-15 23:58S 01°34' W 048°47'3 7.7
2018-Apr-15 23:31S 01°31' W 048°46'712.9
2018-Apr-15 23:00S 01°25' W 048°43'613.0
2018-Apr-15 22:30S 01°19' W 048°40'612.4
2018-Apr-15 22:01S 01°15' W 048°36'611.6
2018-Apr-15 21:31S 01°10' W 048°33'3 6.8
2018-Apr-15 21:00S 01°07' W 048°30'2 4.3
2018-Apr-15 20:30S 01°06' W 048°29'0 0.1
2018-Apr-15 20:00S 01°06' W 048°29'0 0.0
2018-Apr-15 19:30S 01°06' W 048°29'0 0.1
2018-Apr-15 19:00S 01°06' W 048°29'0 0.0
2018-Apr-15 18:27S 01°06' W 048°29'0 0.1
2018-Apr-15 18:00S 01°06' W 048°29'0 0.0
2018-Apr-15 17:30S 01°06' W 048°29'0 0.0
2018-Apr-15 17:00S 01°06' W 048°29'0 0.1
2018-Apr-15 16:30S 01°06' W 048°29'0 0.2
2018-Apr-15 16:00S 01°06' W 048°29'0 0.2
2018-Apr-15 15:03S 01°06' W 048°29'0 0.0
2018-Apr-15 15:00S 01°06' W 048°29'0 0.0
2018-Apr-15 14:30S 01°06' W 048°29'0 0.0
2018-Apr-15 13:48S 01°06' W 048°29'0 0.0
2018-Apr-15 13:28S 01°06' W 048°29'0 0.0
2018-Apr-15 12:59S 01°06' W 048°29'0 0.0
2018-Apr-15 12:30S 01°06' W 048°29'0 0.0
2018-Apr-15 12:00S 01°06' W 048°29'0 0.0
2018-Apr-15 11:30S 01°06' W 048°29'0 0.1
2018-Apr-15 10:48S 01°06' W 048°29'0 0.5
2018-Apr-15 10:30S 01°06' W 048°29'0 0.3
2018-Apr-15 10:00S 01°06' W 048°29'0 0.1
2018-Apr-15 09:27S 01°06' W 048°29'0 0.0
2018-Apr-15 09:00S 01°06' W 048°29'0 0.0
2018-Apr-15 08:30S 01°06' W 048°29'0 0.0
2018-Apr-15 08:00S 01°06' W 048°29'0 0.0
2018-Apr-15 07:30S 01°06' W 048°29'0 0.1
2018-Apr-15 07:00S 01°06' W 048°29'0 0.0
2018-Apr-15 06:30S 01°06' W 048°29'0 0.0
2018-Apr-15 06:00S 01°06' W 048°29'0 0.0
2018-Apr-15 05:30S 01°06' W 048°29'0 0.0
2018-Apr-15 05:00S 01°06' W 048°29'0 0.0
2018-Apr-15 04:30S 01°06' W 048°29'0 0.3
2018-Apr-15 04:00S 01°06' W 048°29'0 0.2
2018-Apr-15 03:30S 01°06' W 048°29'0 0.1
2018-Apr-15 03:00S 01°06' W 048°29'0 0.0
2018-Apr-15 02:24S 01°06' W 048°29'0 0.0
2018-Apr-15 02:00S 01°06' W 048°29'0 0.0
2018-Apr-15 01:30S 01°06' W 048°29'0 0.0
2018-Apr-15 01:00S 01°06' W 048°29'0 0.0
2018-Apr-15 00:30S 01°06' W 048°29'0 0.0
2018-Apr-15 00:00S 01°06' W 048°29'0 0.0
2018-Apr-14 23:30S 01°06' W 048°29'0 0.0
2018-Apr-14 23:00S 01°06' W 048°29'0 0.0
2018-Apr-14 22:30S 01°06' W 048°29'0 0.2
2018-Apr-14 21:57S 01°06' W 048°29'0 0.5
2018-Apr-14 21:30S 01°06' W 048°29'0 0.1
2018-Apr-14 21:00S 01°06' W 048°29'0 0.0
2018-Apr-14 20:30S 01°06' W 048°29'0 0.0
2018-Apr-14 20:00S 01°06' W 048°29'0 0.0
2018-Apr-14 19:30S 01°06' W 048°29'0 0.0
2018-Apr-14 19:00S 01°06' W 048°29'0 0.0
2018-Apr-14 18:30S 01°06' W 048°29'0 0.0
2018-Apr-14 18:00S 01°06' W 048°29'0 0.0
2018-Apr-14 17:30S 01°06' W 048°29'0 0.0
2018-Apr-14 17:00S 01°06' W 048°29'0 0.0
2018-Apr-14 01:06S 01°06' W 048°29'0 0.0
2018-Apr-14 01:00S 01°06' W 048°29'0 0.0
2018-Apr-14 00:30S 01°06' W 048°29'0 0.0
2018-Apr-14 00:00S 01°06' W 048°29'0 0.0
2018-Apr-13 23:30S 01°06' W 048°29'0 0.0
2018-Apr-13 23:00S 01°06' W 048°29'0 0.0
2018-Apr-13 22:30S 01°06' W 048°29'0 0.0
2018-Apr-13 22:00S 01°06' W 048°29'0 0.1
2018-Apr-13 21:30S 01°06' W 048°29'0 0.4
2018-Apr-13 21:00S 01°06' W 048°29'0 0.1
2018-Apr-13 20:30S 01°06' W 048°29'0 0.0
2018-Apr-13 20:00S 01°06' W 048°29'0 0.0
2018-Apr-13 19:30S 01°06' W 048°29'0 0.0
2018-Apr-13 19:00S 01°06' W 048°29'0 0.0
2018-Apr-13 18:30S 01°06' W 048°29'0 0.0
2018-Apr-13 18:00S 01°06' W 048°29'0 0.0
2018-Apr-13 17:30S 01°06' W 048°29'0 0.0
2018-Apr-13 17:00S 01°06' W 048°29'0 0.0
2018-Apr-13 16:30S 01°06' W 048°29'0 0.0
2018-Apr-13 16:00S 01°06' W 048°29'0 0.0
2018-Apr-13 15:30S 01°06' W 048°29'0 0.4
2018-Apr-13 15:00S 01°06' W 048°29'0 0.2
2018-Apr-13 14:30S 01°06' W 048°29'0 0.0
2018-Apr-13 14:00S 01°06' W 048°29'0 0.0
2018-Apr-13 13:30S 01°06' W 048°29'0 0.0
2018-Apr-13 13:00S 01°06' W 048°29'0 0.0
2018-Apr-13 12:30S 01°06' W 048°29'0 0.0
2018-Apr-13 12:00S 01°06' W 048°29'0 0.0
2018-Apr-13 11:30S 01°06' W 048°29'0 0.0
2018-Apr-13 11:00S 01°06' W 048°29'0 0.0
2018-Apr-13 10:30S 01°06' W 048°29'0 0.0
2018-Apr-13 10:00S 01°06' W 048°29'0 0.2
2018-Apr-13 09:30S 01°06' W 048°29'0 0.4
2018-Apr-13 09:00S 01°06' W 048°29'0 0.1
2018-Apr-13 08:30S 01°06' W 048°29'0 0.0
2018-Apr-13 08:00S 01°06' W 048°29'0 0.0
2018-Apr-13 07:30S 01°06' W 048°29'0 0.0
2018-Apr-13 07:00S 01°06' W 048°29'0 0.0
2018-Apr-13 06:30S 01°06' W 048°29'0 0.0
2018-Apr-13 06:00S 01°06' W 048°29'0 0.0
2018-Apr-13 05:30S 01°06' W 048°29'0 0.0
2018-Apr-13 05:00S 01°06' W 048°29'0 0.0
2018-Apr-13 04:30S 01°06' W 048°29'0 0.0
2018-Apr-13 04:00S 01°06' W 048°29'0 0.0
2018-Apr-13 03:30S 01°06' W 048°29'0 0.0
2018-Apr-13 03:00S 01°06' W 048°29'0 0.1
2018-Apr-13 02:30S 01°06' W 048°29'0 0.3
2018-Apr-13 02:00S 01°06' W 048°29'0 0.1
2018-Apr-13 01:30S 01°06' W 048°29'0 0.0
2018-Apr-13 01:00S 01°06' W 048°29'0 0.0
2018-Apr-13 00:30S 01°06' W 048°29'0 0.0
2018-Apr-13 00:00S 01°06' W 048°29'0 0.0
2018-Apr-12 23:30S 01°06' W 048°29'0 0.0
2018-Apr-12 23:00S 01°06' W 048°29'0 0.0
2018-Apr-12 22:30S 01°06' W 048°29'0 0.0
2018-Apr-12 22:00S 01°06' W 048°29'0 0.0
2018-Apr-12 21:30S 01°06' W 048°29'0 0.1
2018-Apr-12 21:00S 01°06' W 048°29'0 0.3
2018-Apr-12 20:30S 01°06' W 048°29'0 0.3
2018-Apr-12 20:00S 01°06' W 048°29'0 0.0
2018-Apr-12 19:30S 01°06' W 048°29'0 0.0
2018-Apr-12 19:00S 01°06' W 048°29'0 0.0
2018-Apr-12 18:30S 01°06' W 048°29'0 0.0
2018-Apr-12 18:00S 01°06' W 048°29'0 0.0
2018-Apr-12 17:30S 01°06' W 048°29'0 0.1
2018-Apr-12 17:00S 01°06' W 048°29'0 0.1
2018-Apr-12 16:30S 01°06' W 048°29'0 0.0
2018-Apr-12 16:00S 01°06' W 048°29'0 0.0
2018-Apr-12 15:30S 01°06' W 048°29'0 0.0
2018-Apr-12 15:00S 01°06' W 048°29'0 0.2
2018-Apr-12 14:30S 01°06' W 048°29'0 0.2
2018-Apr-12 14:00S 01°06' W 048°29'0 0.1
2018-Apr-12 13:30S 01°06' W 048°29'0 0.1
2018-Apr-12 12:57S 01°06' W 048°29'0 0.0
2018-Apr-12 12:30S 01°06' W 048°29'0 0.0
2018-Apr-12 12:00S 01°06' W 048°29'0 0.0
2018-Apr-12 11:30S 01°06' W 048°29'0 0.0
2018-Apr-12 11:00S 01°06' W 048°29'0 0.0
2018-Apr-12 10:30S 01°06' W 048°29'0 0.0
2018-Apr-12 10:00S 01°06' W 048°29'0 0.0
2018-Apr-12 09:30S 01°06' W 048°29'0 0.0
2018-Apr-12 08:49S 01°06' W 048°29'0 0.3
2018-Apr-12 08:28S 01°06' W 048°29'0 0.4
2018-Apr-12 08:00S 01°06' W 048°29'0 0.1
2018-Apr-12 07:28S 01°06' W 048°29'0 0.0
2018-Apr-12 06:40S 01°06' W 048°29'0 0.0
2018-Apr-12 06:27S 01°06' W 048°29'0 0.0
2018-Apr-12 06:00S 01°06' W 048°29'0 0.0
2018-Apr-12 05:30S 01°06' W 048°29'0 0.0
2018-Apr-12 05:00S 01°06' W 048°29'0 0.0
2018-Apr-12 04:30S 01°06' W 048°29'0 0.0
2018-Apr-12 04:00S 01°06' W 048°29'0 0.1
2018-Apr-12 03:30S 01°06' W 048°29'0 0.0
2018-Apr-12 03:00S 01°06' W 048°29'0 0.2
2018-Apr-12 02:30S 01°06' W 048°29'0 0.2
2018-Apr-12 02:00S 01°06' W 048°29'0 0.2
2018-Apr-12 01:30S 01°06' W 048°29'0 0.1
2018-Apr-12 01:00S 01°06' W 048°29'0 0.0
2018-Apr-12 00:30S 01°06' W 048°29'0 0.1
2018-Apr-12 00:00S 01°06' W 048°29'0 0.0
2018-Apr-11 23:24S 01°06' W 048°29'0 0.1
2018-Apr-11 23:00S 01°06' W 048°29'0 0.0
2018-Apr-11 22:30S 01°06' W 048°29'0 0.0
2018-Apr-11 22:00S 01°06' W 048°29'0 0.0
2018-Apr-11 21:30S 01°06' W 048°29'0 0.0
2018-Apr-11 21:00S 01°06' W 048°29'0 0.0
2018-Apr-11 20:30S 01°06' W 048°29'0 0.1
2018-Apr-11 20:00S 01°06' W 048°29'0 0.4
2018-Apr-11 19:24S 01°06' W 048°29'0 0.2
2018-Apr-11 19:00S 01°06' W 048°29'0 0.0
2018-Apr-11 18:27S 01°06' W 048°29'0 0.0
2018-Apr-11 18:00S 01°06' W 048°29'0 0.0
2018-Apr-11 17:30S 01°06' W 048°29'0 0.0
2018-Apr-11 16:57S 01°06' W 048°29'0 0.0
2018-Apr-11 16:30S 01°06' W 048°29'0 0.0
2018-Apr-11 15:59S 01°06' W 048°29'0 0.1
2018-Apr-11 15:31S 01°06' W 048°29'1 1.0
2018-Apr-11 14:59S 01°06' W 048°29'3 6.1
2018-Apr-11 14:30S 01°03' W 048°28'510.8
2018-Apr-11 14:00S 00°58' W 048°27'5 9.3
2018-Apr-11 13:30S 00°54' W 048°29'510.7
2018-Apr-11 13:00S 00°49' W 048°28'510.9
2018-Apr-11 12:30S 00°44' W 048°26'611.3
2018-Apr-11 12:00S 00°39' W 048°23'611.6
2018-Apr-11 11:30S 00°34' W 048°20'612.2
2018-Apr-11 11:00S 00°29' W 048°16'612.0
2018-Apr-11 10:29S 00°25' W 048°12'612.2
2018-Apr-11 10:00S 00°22' W 048°06'612.3
2018-Apr-11 09:30S 00°19' W 048°01'712.3
2018-Apr-11 08:58S 00°16' W 047°55'1115.7
2018-Apr-11 08:17S 00°15' W 047°45'4 7.7
2018-Apr-11 07:49S 00°15' W 047°41'1911.8
2018-Apr-11 06:10S 00°18' W 047°22'  

Dump ship's entire track history